This is the latest recevied weather packets stored in our database for station/object N4NVD-13. If no packets are shown the sender has not sent any weather packets the latest 10 day(s).
| Time | Temp. | Humidity | Pressure | Rain* | Wind** | Luminosity | Snow |
|---|---|---|---|---|---|---|---|
| 1777062166 | 30.56° C | 73% | 1005.1 hPa | 0 mm | - | 718 W/m² | - |
| 1777061864 | 30° C | 74% | 1005.3 hPa | 0 mm | - | 521 W/m² | - |
| 1777061559 | 30.56° C | 73% | 1005.4 hPa | 0 mm | - | 307 W/m² | - |
| 1777061256 | 30.56° C | 73% | 1005.2 hPa | 0 mm | - | 305 W/m² | - |
| 1777060951 | 30.56° C | 73% | 1005.3 hPa | 0 mm | - | 727 W/m² | - |
| 1777060646 | 31.11° C | 74% | 1005.3 hPa | 0 mm | - | 240 W/m² | - |
| 1777060342 | 31.11° C | 72% | 1005.5 hPa | 0 mm | - | 654 W/m² | - |
| 1777060039 | 30.56° C | 74% | 1005.4 hPa | 0 mm | - | 723 W/m² | - |
| 1777059735 | 30° C | 77% | 1005.6 hPa | 0 mm | - | 767 W/m² | - |
| 1777059432 | 30° C | 77% | 1005.5 hPa | 0 mm | - | 676 W/m² | - |
| 1777059128 | 30° C | 75% | 1005.7 hPa | 0 mm | - | 471 W/m² | - |
| 1777058823 | 30° C | 76% | 1005.7 hPa | 0 mm | - | 784 W/m² | - |
| 1777058518 | 30° C | 76% | 1005.6 hPa | 0 mm | - | 335 W/m² | - |
| 1777058216 | 30° C | 76% | 1005.9 hPa | 0 mm | - | 535 W/m² | - |
| 1777057911 | 28.89° C | 77% | 1005.9 hPa | 0 mm | - | 623 W/m² | - |
| 1777057606 | 29.44° C | 77% | 1005.8 hPa | 0 mm | - | 230 W/m² | - |
| 1777057301 | 30° C | 76% | 1005.9 hPa | 0 mm | - | 831 W/m² | - |
| 1777056997 | 30° C | 76% | 1006 hPa | 0 mm | - | 804 W/m² | - |
| 1777056697 | 29.44° C | 77% | 1006.1 hPa | 0 mm | - | 711 W/m² | - |
| 1777056393 | 30° C | 76% | 1006.1 hPa | 0 mm | - | 789 W/m² | - |
* Rain latest hour (hover to see other rain measurements)
** Current wind speed in m/s (hover to see current wind gust speed)